EBFS

Florennes Air Base Airport

Florennes, Belgium
METAR EBFS 180855Z 22011KT 9999 SCT016 BKN030 17/13 Q1022 WHT WHT TEMPO GRN
Observed Flight Rules
Jun-18 @ 08:55 UTC (4 hours ago) Marginal Visual Flight Rules
Wind Visibility Clouds
220° at 11 knots 10,000+ meters
  • Scattered at 1,600' AGL
  • Broken at 3,000' AGL
Temperatures Readings
Current 17°C / 63°F
Dewpoint 13°C / 55°F
Humidity 77%
Altimeter 30.18" Hg
Pressure 1022 hPa
Elevation 299
METAR EBFS 180855Z 22011KT 9999 SCT016 BKN030 17/13 Q1022 WHT WHT TEMPO GRN
Observed Flight Rules
Jun-18 @ 08:55 UTC
(4 hours ago)
MVFR
Wind Visibility
220° at 11 knots 10,000+ meters
Clouds
  • Scattered at 1,600' AGL
  • Broken at 3,000' AGL
Temperature Dewpoint
17°C / 63°F 13°C / 55°F
Humidity Altimeter Pressure
77% 30.18" Hg 1022 hPa